Liege, Belgium

10:51 PM CET on February 09, 2016 (GMT +0100)
Maastricht-Aachen | | Change Station
CLOSE
Current Station
Airport
Location: Maastricht,
Elevation: 374 ft
Nearby Weather Stations

Elev 374 ft 50.91 °N, 5.76 °E | Updated 26 minutes ago

Scattered Clouds
Scattered Clouds
39 °F
Feels Like 31 °F
N
15
Wind Variable Wind from SW

Today
High -- | Low -- °F
--% Chance of Precip.
Yesterday
High -- | Low -- °F
Precip. -- in
Pressure 29.21 in
Visibility 6.2 miles
Clouds Few 1200 ft
Scattered Clouds 1500 ft
Windchill 31 °F
Dew Point 36 °F
Humidity 87%
Rainfall 0.00 in
Snow Depth Not available.
8:02 AM 5:43 PM
New Moon, 2% visible
METAR EHBK 092125Z AUTO 23013KT 200V260 9999 FEW012 SCT015 04/02 Q0989 NOSIG
Pressure 29.21 in
Visibility 6.2 miles
Clouds Few 1200 ft
Scattered Clouds 1500 ft
Windchill 31 °F
Dew Point 36 °F
Humidity 87%
Rainfall 0.00 in
Snow Depth Not available.
8:02 AM 5:43 PM
New Moon, 2% visible
METAR EHBK 092125Z AUTO 23013KT 200V260 9999 FEW012 SCT015 04/02 Q0989 NOSIG

10-Day Weather Forecast

Almanac

Astronomy

Feb. 09, 2016 Rise Set
Actual Time
Civil Twilight
Nautical Twilight
Astronomical Twilight
Moon
Length of Visible Light
Length of Day
Tomorrow will be .
, % of the Moon is Illuminated

Today's Extremes

Country Highs Country Lows

Community

WunderPhotos

Upload Photos

1,891,710 photos uploaded!

WunderBlog® & News

Nearby

Air Quality

  Air Quality AQ Index Pollutant
Not available.

Snow Depth

Station Depth Elevation

Earthquake Activity

City Distance Mag. Time & Date
Minimum magnitude displayed is 2.5.

Coastal Water Temperatures

Place Temperature

Stations

Nearby Weather Stations

Station Location Temp. Windchill Dew Point Humidity Wind Precip. Elev Updated Type